sensor_id;sensor_type;location;lat;lon;timestamp;temperature;humidity
69990;DHT22;57331;52.054;5.294;2023-08-12T00:00:57;20.10;73.90
69990;DHT22;57331;52.054;5.294;2023-08-12T00:03:24;20.60;74.40
69990;DHT22;57331;52.054;5.294;2023-08-12T00:05:52;20.90;63.70
69990;DHT22;57331;52.054;5.294;2023-08-12T00:08:19;19.90;74.20
69990;DHT22;57331;52.054;5.294;2023-08-12T00:13:14;19.60;74.40
69990;DHT22;57331;52.054;5.294;2023-08-12T00:18:12;20.00;74.90
69990;DHT22;57331;52.054;5.294;2023-08-12T00:23:08;20.60;65.30
69990;DHT22;57331;52.054;5.294;2023-08-12T00:32:57;20.50;76.80
69990;DHT22;57331;52.054;5.294;2023-08-12T00:35:24;19.80;77.20
69990;DHT22;57331;52.054;5.294;2023-08-12T00:37:51;22.20;78.10
69990;DHT22;57331;52.054;5.294;2023-08-12T00:40:18;21.00;77.60
69990;DHT22;57331;52.054;5.294;2023-08-12T00:45:13;19.90;73.10
69990;DHT22;57331;52.054;5.294;2023-08-12T00:47:41;21.60;78.30
69990;DHT22;57331;52.054;5.294;2023-08-12T00:50:11;20.30;74.40
69990;DHT22;57331;52.054;5.294;2023-08-12T00:52:40;21.20;78.20
69990;DHT22;57331;52.054;5.294;2023-08-12T00:57:35;21.60;78.70
69990;DHT22;57331;52.054;5.294;2023-08-12T01:00:03;20.60;67.20
69990;DHT22;57331;52.054;5.294;2023-08-12T01:09:53;20.90;78.80
69990;DHT22;57331;52.054;5.294;2023-08-12T01:12:29;21.00;79.00
69990;DHT22;57331;52.054;5.294;2023-08-12T01:15:08;20.50;67.80
69990;DHT22;57331;52.054;5.294;2023-08-12T01:17:38;19.50;78.60
69990;DHT22;57331;52.054;5.294;2023-08-12T01:20:09;19.20;78.40
69990;DHT22;57331;52.054;5.294;2023-08-12T01:22:41;19.50;78.40
69990;DHT22;57331;52.054;5.294;2023-08-12T01:30:05;21.70;79.90
69990;DHT22;57331;52.054;5.294;2023-08-12T01:32:49;21.90;68.80
69990;DHT22;57331;52.054;5.294;2023-08-12T01:35:24;20.40;68.20
69990;DHT22;57331;52.054;5.294;2023-08-12T01:37:53;21.40;79.70
69990;DHT22;57331;52.054;5.294;2023-08-12T01:40:21;19.20;78.70
69990;DHT22;57331;52.054;5.294;2023-08-12T01:45:18;21.70;69.00
69990;DHT22;57331;52.054;5.294;2023-08-12T02:00:05;20.40;79.90
69990;DHT22;57331;52.054;5.294;2023-08-12T02:02:42;19.90;79.90
69990;DHT22;57331;52.054;5.294;2023-08-12T02:05:09;20.70;74.40
69990;DHT22;57331;52.054;5.294;2023-08-12T02:10:04;19.60;80.30
69990;DHT22;57331;52.054;5.294;2023-08-12T02:12:31;21.40;81.60
69990;DHT22;57331;52.054;5.294;2023-08-12T02:17:25;19.20;80.80
69990;DHT22;57331;52.054;5.294;2023-08-12T02:27:14;19.20;81.00
69990;DHT22;57331;52.054;5.294;2023-08-12T02:32:08;19.50;81.80
69990;DHT22;57331;52.054;5.294;2023-08-12T02:37:03;20.80;82.50
69990;DHT22;57331;52.054;5.294;2023-08-12T02:41:57;20.30;77.90
69990;DHT22;57331;52.054;5.294;2023-08-12T02:44:24;20.30;82.70
69990;DHT22;57331;52.054;5.294;2023-08-12T02:46:51;21.60;83.40
69990;DHT22;57331;52.054;5.294;2023-08-12T02:49:18;20.60;82.80
69990;DHT22;57331;52.054;5.294;2023-08-12T02:51:45;19.10;81.90
69990;DHT22;57331;52.054;5.294;2023-08-12T02:54:12;20.10;82.50
69990;DHT22;57331;52.054;5.294;2023-08-12T02:56:39;19.50;82.20
69990;DHT22;57331;52.054;5.294;2023-08-12T02:59:06;20.80;83.00
69990;DHT22;57331;52.054;5.294;2023-08-12T03:01:33;19.80;82.50
69990;DHT22;57331;52.054;5.294;2023-08-12T03:06:28;19.40;82.40
69990;DHT22;57331;52.054;5.294;2023-08-12T03:08:55;21.40;83.40
69990;DHT22;57331;52.054;5.294;2023-08-12T03:13:50;21.50;83.80
69990;DHT22;57331;52.054;5.294;2023-08-12T03:16:17;20.20;83.00
69990;DHT22;57331;52.054;5.294;2023-08-12T03:21:14;20.30;83.10
69990;DHT22;57331;52.054;5.294;2023-08-12T03:23:41;21.30;83.60
69990;DHT22;57331;52.054;5.294;2023-08-12T03:26:09;20.40;83.10
69990;DHT22;57331;52.054;5.294;2023-08-12T03:31:06;21.00;83.60
69990;DHT22;57331;52.054;5.294;2023-08-12T03:33:34;19.90;83.10
69990;DHT22;57331;52.054;5.294;2023-08-12T03:36:03;20.80;83.60
69990;DHT22;57331;52.054;5.294;2023-08-12T03:45:53;20.60;83.60
69990;DHT22;57331;52.054;5.294;2023-08-12T03:50:48;22.10;84.30
69990;DHT22;57331;52.054;5.294;2023-08-12T03:53:15;21.00;83.80
69990;DHT22;57331;52.054;5.294;2023-08-12T03:58:12;20.80;83.90
69990;DHT22;57331;52.054;5.294;2023-08-12T04:00:43;22.00;84.70
69990;DHT22;57331;52.054;5.294;2023-08-12T04:03:12;19.80;83.40
69990;DHT22;57331;52.054;5.294;2023-08-12T04:05:50;20.70;73.30
69990;DHT22;57331;52.054;5.294;2023-08-12T04:08:20;19.40;83.90
69990;DHT22;57331;52.054;5.294;2023-08-12T04:10:48;20.10;84.30
69990;DHT22;57331;52.054;5.294;2023-08-12T04:25:34;20.90;85.40
69990;DHT22;57331;52.054;5.294;2023-08-12T04:28:01;22.20;83.10
69990;DHT22;57331;52.054;5.294;2023-08-12T04:32:57;20.70;80.50
69990;DHT22;57331;52.054;5.294;2023-08-12T04:42:51;19.60;85.30
69990;DHT22;57331;52.054;5.294;2023-08-12T04:45:18;20.00;85.20
69990;DHT22;57331;52.054;5.294;2023-08-12T04:50:16;21.10;86.10
69990;DHT22;57331;52.054;5.294;2023-08-12T04:52:43;20.40;78.20
69990;DHT22;57331;52.054;5.294;2023-08-12T04:57:38;21.00;85.80
69990;DHT22;57331;52.054;5.294;2023-08-12T05:00:06;22.40;86.40
69990;DHT22;57331;52.054;5.294;2023-08-12T05:02:36;19.70;85.10
69990;DHT22;57331;52.054;5.294;2023-08-12T05:05:03;20.90;85.60
69990;DHT22;57331;52.054;5.294;2023-08-12T05:07:33;20.40;85.40
69990;DHT22;57331;52.054;5.294;2023-08-12T05:12:30;20.60;85.60
69990;DHT22;57331;52.054;5.294;2023-08-12T05:14:58;19.90;85.40
69990;DHT22;57331;52.054;5.294;2023-08-12T05:19:54;22.10;86.90
69990;DHT22;57331;52.054;5.294;2023-08-12T05:27:16;20.30;79.50
69990;DHT22;57331;52.054;5.294;2023-08-12T05:32:10;22.20;87.50
69990;DHT22;57331;52.054;5.294;2023-08-12T05:34:37;21.20;87.00
69990;DHT22;57331;52.054;5.294;2023-08-12T05:37:04;22.00;87.90
69990;DHT22;57331;52.054;5.294;2023-08-12T05:39:31;20.70;82.30
69990;DHT22;57331;52.054;5.294;2023-08-12T05:44:25;21.80;81.70
69990;DHT22;57331;52.054;5.294;2023-08-12T05:49:20;21.80;81.40
69990;DHT22;57331;52.054;5.294;2023-08-12T05:51:47;20.70;87.20
69990;DHT22;57331;52.054;5.294;2023-08-12T05:54:13;21.60;87.80
69990;DHT22;57331;52.054;5.294;2023-08-12T06:01:35;23.30;88.90
69990;DHT22;57331;52.054;5.294;2023-08-12T06:13:52;20.70;87.40
69990;DHT22;57331;52.054;5.294;2023-08-12T06:18:46;22.00;88.10
69990;DHT22;57331;52.054;5.294;2023-08-12T06:21:14;19.60;87.20
69990;DHT22;57331;52.054;5.294;2023-08-12T06:26:08;22.10;80.30
69990;DHT22;57331;52.054;5.294;2023-08-12T06:28:35;19.40;87.30
69990;DHT22;57331;52.054;5.294;2023-08-12T06:38:24;21.20;88.30
69990;DHT22;57331;52.054;5.294;2023-08-12T06:45:46;21.70;87.80
69990;DHT22;57331;52.054;5.294;2023-08-12T06:48:13;21.50;85.50
69990;DHT22;57331;52.054;5.294;2023-08-12T06:53:07;22.20;89.00
69990;DHT22;57331;52.054;5.294;2023-08-12T06:58:01;21.00;88.40
69990;DHT22;57331;52.054;5.294;2023-08-12T07:00:29;21.10;88.60
69990;DHT22;57331;52.054;5.294;2023-08-12T07:05:23;20.70;88.30
69990;DHT22;57331;52.054;5.294;2023-08-12T07:20:12;21.70;89.30
69990;DHT22;57331;52.054;5.294;2023-08-12T07:27:34;21.00;88.90
69990;DHT22;57331;52.054;5.294;2023-08-12T07:37:23;19.70;88.50
69990;DHT22;57331;52.054;5.294;2023-08-12T07:39:50;21.70;89.20
69990;DHT22;57331;52.054;5.294;2023-08-12T07:42:17;21.60;89.00
69990;DHT22;57331;52.054;5.294;2023-08-12T07:44:44;20.30;88.30
69990;DHT22;57331;52.054;5.294;2023-08-12T07:47:11;19.50;87.70
69990;DHT22;57331;52.054;5.294;2023-08-12T07:57:00;21.90;89.10
69990;DHT22;57331;52.054;5.294;2023-08-12T08:06:49;21.40;89.40
69990;DHT22;57331;52.054;5.294;2023-08-12T08:11:44;22.10;90.00
69990;DHT22;57331;52.054;5.294;2023-08-12T08:19:08;22.50;90.00
69990;DHT22;57331;52.054;5.294;2023-08-12T08:26:40;22.10;89.80
69990;DHT22;57331;52.054;5.294;2023-08-12T08:29:08;21.30;89.90
69990;DHT22;57331;52.054;5.294;2023-08-12T08:31:35;19.80;89.30
69990;DHT22;57331;52.054;5.294;2023-08-12T08:38:57;22.60;90.20
69990;DHT22;57331;52.054;5.294;2023-08-12T08:41:24;21.00;89.50
69990;DHT22;57331;52.054;5.294;2023-08-12T08:43:55;21.30;89.50
69990;DHT22;57331;52.054;5.294;2023-08-12T08:46:26;22.40;90.00
69990;DHT22;57331;52.054;5.294;2023-08-12T08:48:54;22.30;85.40
69990;DHT22;57331;52.054;5.294;2023-08-12T08:51:21;20.80;88.40
69990;DHT22;57331;52.054;5.294;2023-08-12T08:56:18;21.10;80.90
69990;DHT22;57331;52.054;5.294;2023-08-12T08:58:46;20.10;73.60
69990;DHT22;57331;52.054;5.294;2023-08-12T09:01:14;20.50;84.50
69990;DHT22;57331;52.054;5.294;2023-08-12T09:03:42;20.60;85.70
69990;DHT22;57331;52.054;5.294;2023-08-12T09:08:41;18.30;85.60
69990;DHT22;57331;52.054;5.294;2023-08-12T09:11:12;19.10;86.20
69990;DHT22;57331;52.054;5.294;2023-08-12T09:13:40;19.90;86.60
69990;DHT22;57331;52.054;5.294;2023-08-12T09:18:34;19.60;86.10
69990;DHT22;57331;52.054;5.294;2023-08-12T09:23:33;19.50;82.50
69990;DHT22;57331;52.054;5.294;2023-08-12T09:28:29;19.10;84.00
69990;DHT22;57331;52.054;5.294;2023-08-12T09:30:56;21.70;85.10
69990;DHT22;57331;52.054;5.294;2023-08-12T09:33:26;19.20;83.80
69990;DHT22;57331;52.054;5.294;2023-08-12T09:38:21;21.70;82.30
69990;DHT22;57331;52.054;5.294;2023-08-12T09:40:48;20.40;81.50
69990;DHT22;57331;52.054;5.294;2023-08-12T09:43:15;19.50;82.20
69990;DHT22;57331;52.054;5.294;2023-08-12T09:45:44;21.20;71.30
69990;DHT22;57331;52.054;5.294;2023-08-12T09:48:12;22.40;80.20
69990;DHT22;57331;52.054;5.294;2023-08-12T09:55:38;23.60;79.50
69990;DHT22;57331;52.054;5.294;2023-08-12T09:58:07;22.50;67.00
69990;DHT22;57331;52.054;5.294;2023-08-12T10:00:36;24.10;77.20
69990;DHT22;57331;52.054;5.294;2023-08-12T10:03:04;23.00;73.60
69990;DHT22;57331;52.054;5.294;2023-08-12T10:05:33;23.80;73.80
69990;DHT22;57331;52.054;5.294;2023-08-12T10:10:32;23.60;75.40
69990;DHT22;57331;52.054;5.294;2023-08-12T10:12:59;24.00;74.60
69990;DHT22;57331;52.054;5.294;2023-08-12T10:15:26;22.60;68.80
69990;DHT22;57331;52.054;5.294;2023-08-12T10:17:54;23.80;58.30
69990;DHT22;57331;52.054;5.294;2023-08-12T10:20:24;24.50;67.90
69990;DHT22;57331;52.054;5.294;2023-08-12T10:22:51;25.00;67.70
69990;DHT22;57331;52.054;5.294;2023-08-12T10:25:19;24.10;55.50
69990;DHT22;57331;52.054;5.294;2023-08-12T10:27:49;22.90;65.10
69990;DHT22;57331;52.054;5.294;2023-08-12T10:30:16;23.40;64.10
69990;DHT22;57331;52.054;5.294;2023-08-12T10:32:45;23.60;63.90
69990;DHT22;57331;52.054;5.294;2023-08-12T10:35:13;26.20;62.90
69990;DHT22;57331;52.054;5.294;2023-08-12T10:37:40;25.70;61.40
69990;DHT22;57331;52.054;5.294;2023-08-12T10:40:20;22.60;59.10
69990;DHT22;57331;52.054;5.294;2023-08-12T10:42:49;22.50;62.30
69990;DHT22;57331;52.054;5.294;2023-08-12T10:45:17;22.60;63.60
69990;DHT22;57331;52.054;5.294;2023-08-12T10:50:35;23.10;61.10
69990;DHT22;57331;52.054;5.294;2023-08-12T10:53:27;23.60;57.60
69990;DHT22;57331;52.054;5.294;2023-08-12T10:56:05;24.50;52.10
69990;DHT22;57331;52.054;5.294;2023-08-12T10:58:45;23.40;52.70
69990;DHT22;57331;52.054;5.294;2023-08-12T11:01:18;25.20;56.80
69990;DHT22;57331;52.054;5.294;2023-08-12T11:03:47;26.10;56.70
69990;DHT22;57331;52.054;5.294;2023-08-12T11:06:15;25.80;56.80
69990;DHT22;57331;52.054;5.294;2023-08-12T11:08:52;25.80;57.20
69990;DHT22;57331;52.054;5.294;2023-08-12T11:11:23;24.10;58.00
69990;DHT22;57331;52.054;5.294;2023-08-12T11:13:54;25.10;57.70
69990;DHT22;57331;52.054;5.294;2023-08-12T11:16:36;25.00;58.30
69990;DHT22;57331;52.054;5.294;2023-08-12T11:19:04;24.00;54.90
69990;DHT22;57331;52.054;5.294;2023-08-12T11:21:36;25.10;53.60
69990;DHT22;57331;52.054;5.294;2023-08-12T11:24:03;26.00;44.40
69990;DHT22;57331;52.054;5.294;2023-08-12T11:26:30;26.80;52.50
69990;DHT22;57331;52.054;5.294;2023-08-12T11:28:57;26.90;46.10
69990;DHT22;57331;52.054;5.294;2023-08-12T11:31:24;26.90;38.10
69990;DHT22;57331;52.054;5.294;2023-08-12T11:33:52;26.90;35.40
69990;DHT22;57331;52.054;5.294;2023-08-12T11:36:20;27.00;37.40
69990;DHT22;57331;52.054;5.294;2023-08-12T11:38:47;27.00;35.30
69990;DHT22;57331;52.054;5.294;2023-08-12T11:41:17;27.00;33.80
69990;DHT22;57331;52.054;5.294;2023-08-12T11:43:44;27.00;30.40
69990;DHT22;57331;52.054;5.294;2023-08-12T11:46:11;27.10;32.50
69990;DHT22;57331;52.054;5.294;2023-08-12T11:48:43;27.20;30.30
69990;DHT22;57331;52.054;5.294;2023-08-12T11:51:10;27.20;30.00
69990;DHT22;57331;52.054;5.294;2023-08-12T11:53:37;28.40;41.10
69990;DHT22;57331;52.054;5.294;2023-08-12T11:56:04;27.60;39.20
69990;DHT22;57331;52.054;5.294;2023-08-12T11:58:36;27.60;29.80
69990;DHT22;57331;52.054;5.294;2023-08-12T12:01:18;27.70;30.00
69990;DHT22;57331;52.054;5.294;2023-08-12T12:03:49;27.90;28.90
69990;DHT22;57331;52.054;5.294;2023-08-12T12:06:16;27.80;28.90
69990;DHT22;57331;52.054;5.294;2023-08-12T12:08:47;28.10;30.00
69990;DHT22;57331;52.054;5.294;2023-08-12T12:11:15;28.40;28.70
69990;DHT22;57331;52.054;5.294;2023-08-12T12:13:42;28.40;29.00
69990;DHT22;57331;52.054;5.294;2023-08-12T12:16:12;28.60;28.70
69990;DHT22;57331;52.054;5.294;2023-08-12T12:18:39;28.70;27.00
69990;DHT22;57331;52.054;5.294;2023-08-12T12:21:06;29.00;28.10
69990;DHT22;57331;52.054;5.294;2023-08-12T12:23:33;30.40;34.80
69990;DHT22;57331;52.054;5.294;2023-08-12T12:26:02;29.30;35.10
69990;DHT22;57331;52.054;5.294;2023-08-12T12:28:29;29.00;26.60
69990;DHT22;57331;52.054;5.294;2023-08-12T12:30:56;29.00;27.00
69990;DHT22;57331;52.054;5.294;2023-08-12T12:33:24;29.00;26.80
69990;DHT22;57331;52.054;5.294;2023-08-12T12:35:51;29.00;25.60
69990;DHT22;57331;52.054;5.294;2023-08-12T12:38:26;29.20;26.60
69990;DHT22;57331;52.054;5.294;2023-08-12T12:40:53;29.20;27.00
69990;DHT22;57331;52.054;5.294;2023-08-12T12:43:20;29.30;25.30
69990;DHT22;57331;52.054;5.294;2023-08-12T12:45:47;29.20;24.70
69990;DHT22;57331;52.054;5.294;2023-08-12T12:48:14;29.20;24.80
69990;DHT22;57331;52.054;5.294;2023-08-12T12:50:41;29.40;23.60
69990;DHT22;57331;52.054;5.294;2023-08-12T12:53:08;29.80;27.20
69990;DHT22;57331;52.054;5.294;2023-08-12T12:55:35;29.70;26.10
69990;DHT22;57331;52.054;5.294;2023-08-12T12:58:02;29.50;26.70
69990;DHT22;57331;52.054;5.294;2023-08-12T13:00:29;29.40;25.80
69990;DHT22;57331;52.054;5.294;2023-08-12T13:02:56;29.20;26.60
69990;DHT22;57331;52.054;5.294;2023-08-12T13:05:23;29.20;25.90
69990;DHT22;57331;52.054;5.294;2023-08-12T13:07:50;29.00;26.80
69990;DHT22;57331;52.054;5.294;2023-08-12T13:10:17;29.10;26.60
69990;DHT22;57331;52.054;5.294;2023-08-12T13:12:44;28.50;26.10
69990;DHT22;57331;52.054;5.294;2023-08-12T13:15:11;28.20;25.50
69990;DHT22;57331;52.054;5.294;2023-08-12T13:17:38;27.90;26.40
69990;DHT22;57331;52.054;5.294;2023-08-12T13:20:06;27.80;26.90
69990;DHT22;57331;52.054;5.294;2023-08-12T13:22:33;27.70;26.40
69990;DHT22;57331;52.054;5.294;2023-08-12T13:25:00;27.50;25.60
69990;DHT22;57331;52.054;5.294;2023-08-12T13:27:28;27.40;25.50
69990;DHT22;57331;52.054;5.294;2023-08-12T13:29:55;27.30;25.10
69990;DHT22;57331;52.054;5.294;2023-08-12T13:32:22;27.40;25.30
69990;DHT22;57331;52.054;5.294;2023-08-12T13:34:49;27.40;24.40
69990;DHT22;57331;52.054;5.294;2023-08-12T13:37:16;27.70;24.10
69990;DHT22;57331;52.054;5.294;2023-08-12T13:39:43;28.00;23.40
69990;DHT22;57331;52.054;5.294;2023-08-12T13:42:10;28.30;23.80
69990;DHT22;57331;52.054;5.294;2023-08-12T13:44:37;28.50;24.00
69990;DHT22;57331;52.054;5.294;2023-08-12T13:47:04;29.10;24.70
69990;DHT22;57331;52.054;5.294;2023-08-12T13:49:31;28.00;23.90
69990;DHT22;57331;52.054;5.294;2023-08-12T13:51:58;27.80;24.00
69990;DHT22;57331;52.054;5.294;2023-08-12T13:54:28;27.80;24.00
69990;DHT22;57331;52.054;5.294;2023-08-12T13:56:55;28.00;24.10
69990;DHT22;57331;52.054;5.294;2023-08-12T13:59:22;28.20;24.10
69990;DHT22;57331;52.054;5.294;2023-08-12T14:01:49;28.00;23.30
69990;DHT22;57331;52.054;5.294;2023-08-12T14:04:16;28.00;24.00
69990;DHT22;57331;52.054;5.294;2023-08-12T14:06:43;28.10;23.70
69990;DHT22;57331;52.054;5.294;2023-08-12T14:09:10;28.10;22.30
69990;DHT22;57331;52.054;5.294;2023-08-12T14:11:40;28.00;23.10
69990;DHT22;57331;52.054;5.294;2023-08-12T14:14:07;28.50;23.70
69990;DHT22;57331;52.054;5.294;2023-08-12T14:16:35;28.70;22.90
69990;DHT22;57331;52.054;5.294;2023-08-12T14:19:02;28.50;21.60
69990;DHT22;57331;52.054;5.294;2023-08-12T14:21:29;28.40;23.00
69990;DHT22;57331;52.054;5.294;2023-08-12T14:23:56;28.60;21.90
69990;DHT22;57331;52.054;5.294;2023-08-12T14:26:23;28.60;21.90
69990;DHT22;57331;52.054;5.294;2023-08-12T14:28:50;28.70;22.30
69990;DHT22;57331;52.054;5.294;2023-08-12T14:31:17;29.10;23.00
69990;DHT22;57331;52.054;5.294;2023-08-12T14:33:44;29.30;22.40
69990;DHT22;57331;52.054;5.294;2023-08-12T14:36:11;29.20;21.60
69990;DHT22;57331;52.054;5.294;2023-08-12T14:38:37;29.20;21.00
69990;DHT22;57331;52.054;5.294;2023-08-12T14:41:04;29.30;19.80
69990;DHT22;57331;52.054;5.294;2023-08-12T14:43:31;29.40;19.20
69990;DHT22;57331;52.054;5.294;2023-08-12T14:45:58;29.40;18.50
69990;DHT22;57331;52.054;5.294;2023-08-12T14:48:25;29.20;18.40
69990;DHT22;57331;52.054;5.294;2023-08-12T14:50:52;29.20;19.10
69990;DHT22;57331;52.054;5.294;2023-08-12T14:53:19;29.30;19.20
69990;DHT22;57331;52.054;5.294;2023-08-12T14:55:46;28.90;19.40
69990;DHT22;57331;52.054;5.294;2023-08-12T14:58:14;28.70;20.20
69990;DHT22;57331;52.054;5.294;2023-08-12T15:00:41;28.30;20.20
69990;DHT22;57331;52.054;5.294;2023-08-12T15:03:08;28.40;20.80
69990;DHT22;57331;52.054;5.294;2023-08-12T15:05:38;28.50;20.80
69990;DHT22;57331;52.054;5.294;2023-08-12T15:08:05;28.30;21.00
69990;DHT22;57331;52.054;5.294;2023-08-12T15:10:32;27.90;21.70
69990;DHT22;57331;52.054;5.294;2023-08-12T15:12:59;26.80;30.60
69990;DHT22;57331;52.054;5.294;2023-08-12T15:15:26;27.40;23.10
69990;DHT22;57331;52.054;5.294;2023-08-12T15:17:53;27.80;22.90
69990;DHT22;57331;52.054;5.294;2023-08-12T15:20:20;27.80;23.20
69990;DHT22;57331;52.054;5.294;2023-08-12T15:22:47;26.30;31.00
69990;DHT22;57331;52.054;5.294;2023-08-12T15:25:14;27.30;23.90
69990;DHT22;57331;52.054;5.294;2023-08-12T15:27:41;27.10;24.70
69990;DHT22;57331;52.054;5.294;2023-08-12T15:30:08;27.20;25.30
69990;DHT22;57331;52.054;5.294;2023-08-12T15:32:37;27.40;33.40
69990;DHT22;57331;52.054;5.294;2023-08-12T15:35:08;27.60;31.60
69990;DHT22;57331;52.054;5.294;2023-08-12T15:37:36;29.80;25.30
69990;DHT22;57331;52.054;5.294;2023-08-12T15:40:03;28.30;29.60
69990;DHT22;57331;52.054;5.294;2023-08-12T15:42:30;28.30;22.40
69990;DHT22;57331;52.054;5.294;2023-08-12T15:44:59;30.40;23.00
69990;DHT22;57331;52.054;5.294;2023-08-12T15:47:28;28.10;21.10
69990;DHT22;57331;52.054;5.294;2023-08-12T15:49:55;28.20;21.10
69990;DHT22;57331;52.054;5.294;2023-08-12T15:52:22;28.10;20.40
69990;DHT22;57331;52.054;5.294;2023-08-12T15:54:49;28.10;25.90
69990;DHT22;57331;52.054;5.294;2023-08-12T15:57:16;28.10;19.40
69990;DHT22;57331;52.054;5.294;2023-08-12T15:59:43;28.10;19.50
69990;DHT22;57331;52.054;5.294;2023-08-12T16:02:11;28.70;25.10
69990;DHT22;57331;52.054;5.294;2023-08-12T16:04:38;28.50;18.20
69990;DHT22;57331;52.054;5.294;2023-08-12T16:07:05;28.40;17.00
69990;DHT22;57331;52.054;5.294;2023-08-12T16:09:32;28.40;17.20
69990;DHT22;57331;52.054;5.294;2023-08-12T16:11:59;28.70;17.10
69990;DHT22;57331;52.054;5.294;2023-08-12T16:14:26;28.30;22.80
69990;DHT22;57331;52.054;5.294;2023-08-12T16:16:52;29.30;16.90
69990;DHT22;57331;52.054;5.294;2023-08-12T16:19:19;29.50;16.70
69990;DHT22;57331;52.054;5.294;2023-08-12T16:21:47;29.60;15.60
69990;DHT22;57331;52.054;5.294;2023-08-12T16:24:13;29.80;15.80
69990;DHT22;57331;52.054;5.294;2023-08-12T16:26:40;29.70;16.10
69990;DHT22;57331;52.054;5.294;2023-08-12T16:29:07;29.90;16.00
69990;DHT22;57331;52.054;5.294;2023-08-12T16:31:35;30.20;16.30
69990;DHT22;57331;52.054;5.294;2023-08-12T16:34:05;30.40;15.40
69990;DHT22;57331;52.054;5.294;2023-08-12T16:36:32;30.40;15.30
69990;DHT22;57331;52.054;5.294;2023-08-12T16:38:59;30.50;15.30
69990;DHT22;57331;52.054;5.294;2023-08-12T16:41:26;30.90;15.20
69990;DHT22;57331;52.054;5.294;2023-08-12T16:43:53;31.30;13.10
69990;DHT22;57331;52.054;5.294;2023-08-12T16:46:20;31.10;12.80
69990;DHT22;57331;52.054;5.294;2023-08-12T16:48:49;31.10;12.90
69990;DHT22;57331;52.054;5.294;2023-08-12T16:51:16;31.10;12.90
69990;DHT22;57331;52.054;5.294;2023-08-12T16:53:44;31.20;12.80
69990;DHT22;57331;52.054;5.294;2023-08-12T16:56:10;31.30;12.70
69990;DHT22;57331;52.054;5.294;2023-08-12T16:58:38;30.80;17.30
69990;DHT22;57331;52.054;5.294;2023-08-12T17:01:07;31.60;12.40
69990;DHT22;57331;52.054;5.294;2023-08-12T17:03:34;33.40;13.30
69990;DHT22;57331;52.054;5.294;2023-08-12T17:06:01;32.00;11.50
69990;DHT22;57331;52.054;5.294;2023-08-12T17:08:28;32.10;11.70
69990;DHT22;57331;52.054;5.294;2023-08-12T17:10:55;30.80;16.40
69990;DHT22;57331;52.054;5.294;2023-08-12T17:13:22;31.90;10.80
69990;DHT22;57331;52.054;5.294;2023-08-12T17:15:49;31.90;10.90
69990;DHT22;57331;52.054;5.294;2023-08-12T17:18:16;32.00;11.10
69990;DHT22;57331;52.054;5.294;2023-08-12T17:20:43;32.30;10.50
69990;DHT22;57331;52.054;5.294;2023-08-12T17:23:10;32.40;10.60
69990;DHT22;57331;52.054;5.294;2023-08-12T17:25:37;32.60;10.60
69990;DHT22;57331;52.054;5.294;2023-08-12T17:28:04;32.40;9.40
69990;DHT22;57331;52.054;5.294;2023-08-12T17:30:31;32.30;10.10
69990;DHT22;57331;52.054;5.294;2023-08-12T17:33:00;31.90;9.90
69990;DHT22;57331;52.054;5.294;2023-08-12T17:35:28;31.70;10.00
69990;DHT22;57331;52.054;5.294;2023-08-12T17:37:59;31.40;16.60
69990;DHT22;57331;52.054;5.294;2023-08-12T17:40:26;32.80;18.20
69990;DHT22;57331;52.054;5.294;2023-08-12T17:42:53;31.40;11.00
69990;DHT22;57331;52.054;5.294;2023-08-12T17:45:20;31.30;17.00
69990;DHT22;57331;52.054;5.294;2023-08-12T17:47:58;31.10;16.50
69990;DHT22;57331;52.054;5.294;2023-08-12T17:50:26;31.40;17.50
69990;DHT22;57331;52.054;5.294;2023-08-12T17:52:53;30.70;17.40
69990;DHT22;57331;52.054;5.294;2023-08-12T17:55:20;31.00;12.50
69990;DHT22;57331;52.054;5.294;2023-08-12T17:57:48;30.00;13.40
69990;DHT22;57331;52.054;5.294;2023-08-12T18:00:15;29.10;33.80
69990;DHT22;57331;52.054;5.294;2023-08-12T18:02:43;28.30;16.50
69990;DHT22;57331;52.054;5.294;2023-08-12T18:05:10;27.80;17.60
69990;DHT22;57331;52.054;5.294;2023-08-12T18:07:37;27.40;26.70
69990;DHT22;57331;52.054;5.294;2023-08-12T18:10:04;27.60;19.00
69990;DHT22;57331;52.054;5.294;2023-08-12T18:12:32;28.00;18.60
69990;DHT22;57331;52.054;5.294;2023-08-12T18:14:59;28.40;18.50
69990;DHT22;57331;52.054;5.294;2023-08-12T18:17:26;28.70;18.30
69990;DHT22;57331;52.054;5.294;2023-08-12T18:19:54;28.00;25.20
69990;DHT22;57331;52.054;5.294;2023-08-12T18:22:21;28.80;18.00
69990;DHT22;57331;52.054;5.294;2023-08-12T18:24:48;28.50;18.50
69990;DHT22;57331;52.054;5.294;2023-08-12T18:27:15;26.80;25.50
69990;DHT22;57331;52.054;5.294;2023-08-12T18:29:42;27.30;20.60
69990;DHT22;57331;52.054;5.294;2023-08-12T18:32:11;26.70;22.10
69990;DHT22;57331;52.054;5.294;2023-08-12T18:34:39;26.20;28.30
69990;DHT22;57331;52.054;5.294;2023-08-12T18:37:06;24.00;30.30
69990;DHT22;57331;52.054;5.294;2023-08-12T18:39:33;24.00;32.30
69990;DHT22;57331;52.054;5.294;2023-08-12T18:42:00;23.90;33.00
69990;DHT22;57331;52.054;5.294;2023-08-12T18:44:27;23.20;34.50
69990;DHT22;57331;52.054;5.294;2023-08-12T18:49:21;23.00;36.50
69990;DHT22;57331;52.054;5.294;2023-08-12T18:51:48;24.30;38.50
69990;DHT22;57331;52.054;5.294;2023-08-12T18:59:09;22.90;39.40
69990;DHT22;57331;52.054;5.294;2023-08-12T19:01:37;24.90;41.50
69990;DHT22;57331;52.054;5.294;2023-08-12T19:04:04;22.70;40.30
69990;DHT22;57331;52.054;5.294;2023-08-12T19:06:32;22.00;40.30
69990;DHT22;57331;52.054;5.294;2023-08-12T19:08:59;21.90;40.90
69990;DHT22;57331;52.054;5.294;2023-08-12T19:13:53;24.40;43.00
69990;DHT22;57331;52.054;5.294;2023-08-12T19:18:48;21.80;42.70
69990;DHT22;57331;52.054;5.294;2023-08-12T19:21:14;21.70;40.00
69990;DHT22;57331;52.054;5.294;2023-08-12T19:26:09;22.50;44.20
69990;DHT22;57331;52.054;5.294;2023-08-12T19:28:36;23.60;45.00
69990;DHT22;57331;52.054;5.294;2023-08-12T19:38:25;22.20;44.80
69990;DHT22;57331;52.054;5.294;2023-08-12T19:40:52;20.80;44.60
69990;DHT22;57331;52.054;5.294;2023-08-12T19:45:48;21.00;44.90
69990;DHT22;57331;52.054;5.294;2023-08-12T19:48:16;23.10;46.50
69990;DHT22;57331;52.054;5.294;2023-08-12T19:53:13;22.00;46.70
69990;DHT22;57331;52.054;5.294;2023-08-12T20:00:35;20.70;46.60
69990;DHT22;57331;52.054;5.294;2023-08-12T20:05:29;20.30;46.90
69990;DHT22;57331;52.054;5.294;2023-08-12T20:07:58;23.00;48.60
69990;DHT22;57331;52.054;5.294;2023-08-12T20:10:25;22.80;49.00
69990;DHT22;57331;52.054;5.294;2023-08-12T20:12:52;22.00;48.90
69990;DHT22;57331;52.054;5.294;2023-08-12T20:17:50;22.30;49.80
69990;DHT22;57331;52.054;5.294;2023-08-12T20:22:45;20.80;40.70
69990;DHT22;57331;52.054;5.294;2023-08-12T20:25:30;20.80;50.00
69990;DHT22;57331;52.054;5.294;2023-08-12T20:27:58;22.20;51.10